createdAt,value
2022-10-23T00:01:38.992Z,38.72
2022-10-23T00:04:07.836Z,42.72
2022-10-23T00:06:35.692Z,36.33
2022-10-23T00:09:04.233Z,33.50
2022-10-23T00:11:32.047Z,32.22
2022-10-23T00:14:00.459Z,37.17
2022-10-23T00:16:29.660Z,39.75
2022-10-23T00:18:57.169Z,33.28
2022-10-23T00:21:25.346Z,35.33
2022-10-23T00:23:52.971Z,38.45
2022-10-23T00:26:20.691Z,35.22
2022-10-23T00:28:49.216Z,36.38
2022-10-23T00:31:17.101Z,31.00
2022-10-23T00:33:46.333Z,32.60
2022-10-23T00:36:14.781Z,33.30
2022-10-23T00:38:44.565Z,33.70
2022-10-23T00:41:15.617Z,35.60
2022-10-23T00:44:01.320Z,34.47
2022-10-23T00:46:28.900Z,38.33
2022-10-23T00:48:58.730Z,34.85
2022-10-23T00:51:28.516Z,35.53
2022-10-23T00:54:06.740Z,37.88
2022-10-23T00:56:47.265Z,41.92
2022-10-23T00:59:17.559Z,45.40
2022-10-23T01:01:45.270Z,45.22
2022-10-23T01:04:14.180Z,39.42
2022-10-23T01:06:44.720Z,45.78
2022-10-23T01:09:16.956Z,45.38
2022-10-23T01:11:46.993Z,49.60
2022-10-23T01:14:18.518Z,50.42
2022-10-23T01:16:52.043Z,57.78
2022-10-23T01:19:27.568Z,56.13
2022-10-23T01:21:57.620Z,61.53
2022-10-23T01:24:38.737Z,61.53
2022-10-23T01:27:14.737Z,52.22
2022-10-23T01:29:43.727Z,74.07
2022-10-23T01:32:13.304Z,95.35
2022-10-23T01:34:45.623Z,108.68
2022-10-23T01:37:14.673Z,84.57
2022-10-23T01:39:47.783Z,103.40
2022-10-23T01:42:18.683Z,105.95
2022-10-23T01:44:47.921Z,66.45
2022-10-23T01:47:18.203Z,77.43
2022-10-23T01:49:59.421Z,105.90
2022-10-23T01:52:27.867Z,67.63
2022-10-23T01:54:57.743Z,71.63
2022-10-23T01:57:27.343Z,109.38
2022-10-23T01:59:58.987Z,78.22
2022-10-23T02:02:27.632Z,73.22
2022-10-23T02:04:58.026Z,62.10
2022-10-23T02:07:25.611Z,66.18
2022-10-23T02:09:53.303Z,56.20
2022-10-23T02:15:03.296Z,64.63
2022-10-23T02:17:34.177Z,57.22
2022-10-23T02:20:06.501Z,65.63
2022-10-23T02:22:37.993Z,55.35
2022-10-23T02:25:10.290Z,58.08
2022-10-23T02:27:43.217Z,90.80
2022-10-23T02:30:14.403Z,52.63
2022-10-23T02:32:46.912Z,70.75
2022-10-23T02:35:16.369Z,56.83
2022-10-23T02:37:44.293Z,65.70
2022-10-23T02:40:12.707Z,49.15
2022-10-23T02:42:51.423Z,52.05
2022-10-23T02:45:22.061Z,58.15
2022-10-23T02:47:53.111Z,60.78
2022-10-23T02:50:24.316Z,50.65
2022-10-23T02:52:56.244Z,50.05
2022-10-23T02:55:29.336Z,53.38
2022-10-23T02:57:58.735Z,56.00
2022-10-23T03:00:30.958Z,62.80
2022-10-23T03:03:00.061Z,66.80
2022-10-23T03:05:31.572Z,55.00
2022-10-23T03:07:59.209Z,62.65
2022-10-23T03:10:26.824Z,61.95
2022-10-23T03:12:54.362Z,64.60
2022-10-23T03:15:22.321Z,136.48
2022-10-23T03:17:52.812Z,60.60
2022-10-23T03:20:20.314Z,86.78
2022-10-23T03:22:47.942Z,50.63
2022-10-23T03:25:15.561Z,64.25
2022-10-23T03:27:43.096Z,57.58
2022-10-23T03:30:15.296Z,60.22
2022-10-23T03:32:43.221Z,52.55
2022-10-23T03:35:13.719Z,62.05
2022-10-23T03:37:41.700Z,59.78
2022-10-23T03:40:11.224Z,66.30
2022-10-23T03:42:38.731Z,52.28
2022-10-23T03:45:06.870Z,61.05
2022-10-23T03:47:35.589Z,53.10
2022-10-23T03:50:03.358Z,57.58
2022-10-23T03:52:35.433Z,58.25
2022-10-23T03:55:03.084Z,64.15
2022-10-23T03:57:30.561Z,60.13
2022-10-23T03:59:58.520Z,61.70
2022-10-23T04:02:30.918Z,68.60
2022-10-23T04:04:58.432Z,54.55
2022-10-23T04:07:26.132Z,61.45
2022-10-23T04:09:56.073Z,56.35
2022-10-23T04:12:24.771Z,52.50
2022-10-23T04:14:52.755Z,55.97
2022-10-23T04:17:20.342Z,56.85
2022-10-23T04:19:50.341Z,61.03
2022-10-23T04:22:17.867Z,54.60
2022-10-23T04:24:46.696Z,56.90
2022-10-23T04:27:19.969Z,51.75
2022-10-23T04:29:47.699Z,61.70
2022-10-23T04:32:15.172Z,50.85
2022-10-23T04:34:44.825Z,56.03
2022-10-23T04:37:12.383Z,61.08
2022-10-23T04:39:39.901Z,73.53
2022-10-23T04:42:07.412Z,75.95
2022-10-23T04:44:37.107Z,79.65
2022-10-23T04:47:04.847Z,65.45
2022-10-23T04:49:35.399Z,59.20
2022-10-23T04:52:20.553Z,50.20
2022-10-23T04:55:14.107Z,60.42
2022-10-23T04:57:45.915Z,47.85
2022-10-23T05:00:16.566Z,52.42
2022-10-23T05:02:55.677Z,46.40
2022-10-23T05:05:23.701Z,61.63
2022-10-23T05:08:00.855Z,66.70
2022-10-23T05:10:48.692Z,49.50
2022-10-23T05:13:16.986Z,55.65
2022-10-23T05:15:46.782Z,61.75
2022-10-23T05:18:19.009Z,49.70
2022-10-23T05:20:48.443Z,49.85
2022-10-23T05:23:17.407Z,54.65
2022-10-23T05:25:54.036Z,42.75
2022-10-23T05:28:22.702Z,46.92
2022-10-23T05:30:51.792Z,38.47
2022-10-23T05:33:19.592Z,38.90
2022-10-23T05:35:49.104Z,41.30
2022-10-23T05:38:17.568Z,36.95
2022-10-23T05:40:45.310Z,33.08
2022-10-23T05:43:18.939Z,37.42
2022-10-23T05:45:54.325Z,35.85
2022-10-23T05:48:34.576Z,43.78
2022-10-23T05:51:22.299Z,43.20
2022-10-23T05:53:55.957Z,56.03
2022-10-23T05:56:43.977Z,45.53
2022-10-23T05:59:23.021Z,37.00
2022-10-23T06:01:52.601Z,31.75
2022-10-23T06:04:31.332Z,47.08
2022-10-23T06:07:17.437Z,37.10
2022-10-23T06:09:46.765Z,41.67
2022-10-23T06:12:14.570Z,42.97
2022-10-23T06:14:45.235Z,39.88
2022-10-23T06:17:14.479Z,39.90
2022-10-23T06:19:45.049Z,40.05
2022-10-23T06:22:13.998Z,32.60
2022-10-23T06:24:55.921Z,56.53
2022-10-23T06:27:27.019Z,41.80
2022-10-23T06:29:56.183Z,47.33
2022-10-23T06:32:25.108Z,54.58
2022-10-23T06:35:07.809Z,50.83
2022-10-23T06:37:35.676Z,58.72
2022-10-23T06:40:09.592Z,71.00
2022-10-23T06:42:53.130Z,53.80
2022-10-23T06:45:37.995Z,48.90
2022-10-23T06:48:16.259Z,71.35
2022-10-23T06:50:59.732Z,53.75
2022-10-23T06:53:36.674Z,47.70
2022-10-23T06:56:16.961Z,44.25
2022-10-23T06:58:44.556Z,35.90
2022-10-23T07:01:16.355Z,40.90
2022-10-23T07:03:50.494Z,38.65
2022-10-23T07:06:22.636Z,47.92
2022-10-23T07:08:50.423Z,43.28
2022-10-23T07:11:37.993Z,32.97
2022-10-23T07:14:05.556Z,34.13
2022-10-23T07:16:33.570Z,40.83
2022-10-23T07:19:02.580Z,34.53
2022-10-23T07:21:30.961Z,34.10
2022-10-23T07:24:15.311Z,30.42
2022-10-23T07:26:44.590Z,29.33
2022-10-23T07:29:12.223Z,34.33
2022-10-23T07:31:39.765Z,36.20
2022-10-23T07:34:27.510Z,50.28
2022-10-23T07:37:14.156Z,29.38
2022-10-23T07:39:42.051Z,32.03
2022-10-23T07:42:10.060Z,31.00
2022-10-23T07:44:37.583Z,25.75
2022-10-23T07:47:05.366Z,48.03
2022-10-23T07:49:34.533Z,37.83
2022-10-23T07:54:40.046Z,29.05
2022-10-23T07:57:19.957Z,33.55
2022-10-23T07:59:55.140Z,31.25
2022-10-23T08:02:24.575Z,32.00
2022-10-23T08:04:54.364Z,24.63
2022-10-23T08:07:27.259Z,29.40
2022-10-23T08:09:57.432Z,28.65
2022-10-23T08:12:25.996Z,23.45
2022-10-23T08:14:55.180Z,26.13
2022-10-23T08:17:26.268Z,23.10
2022-10-23T08:19:57.252Z,24.17
2022-10-23T08:22:28.158Z,23.45
2022-10-23T08:24:55.753Z,22.95
2022-10-23T08:27:25.379Z,23.13
2022-10-23T08:29:53.541Z,22.50
2022-10-23T08:32:22.008Z,21.20
2022-10-23T08:34:57.599Z,23.02
2022-10-23T08:37:27.218Z,24.05
2022-10-23T08:39:55.952Z,17.83
2022-10-23T08:42:30.380Z,22.65
2022-10-23T08:45:05.024Z,22.63
2022-10-23T08:47:39.913Z,23.60
2022-10-23T08:50:37.013Z,21.50
2022-10-23T08:53:06.428Z,19.40
2022-10-23T08:55:36.150Z,22.42
2022-10-23T08:58:06.393Z,19.00
2022-10-23T09:00:34.299Z,17.33
2022-10-23T09:03:02.665Z,15.95
2022-10-23T09:05:32.068Z,15.35
2022-10-23T09:08:12.478Z,15.88
2022-10-23T09:10:51.451Z,18.52
2022-10-23T09:13:36.923Z,16.55
2022-10-23T09:16:08.216Z,13.93
2022-10-23T09:18:35.731Z,15.77
2022-10-23T09:21:03.826Z,14.43
2022-10-23T09:23:32.792Z,15.07
2022-10-23T09:26:02.362Z,11.75
2022-10-23T09:28:32.281Z,10.52
2022-10-23T09:31:06.732Z,10.80
2022-10-23T09:33:37.016Z,12.38
2022-10-23T09:36:06.282Z,10.63
2022-10-23T09:38:36.510Z,8.63
2022-10-23T09:41:07.007Z,8.10
2022-10-23T09:43:34.992Z,9.25
2022-10-23T09:46:06.073Z,11.43
2022-10-23T09:48:35.316Z,16.55
2022-10-23T09:51:03.605Z,10.68
2022-10-23T09:53:33.103Z,7.10
2022-10-23T09:56:03.035Z,7.60
2022-10-23T09:58:33.764Z,8.27
2022-10-23T10:01:01.644Z,7.38
2022-10-23T10:03:49.273Z,7.40
2022-10-23T10:06:21.480Z,8.25
2022-10-23T10:08:53.035Z,6.65
2022-10-23T10:11:25.067Z,8.40
2022-10-23T10:14:02.327Z,6.32
2022-10-23T10:16:34.444Z,6.15
2022-10-23T10:19:05.137Z,6.32
2022-10-23T10:21:37.698Z,6.57
2022-10-23T10:24:07.549Z,5.55
2022-10-23T10:26:41.273Z,6.53
2022-10-23T10:29:14.162Z,5.20
2022-10-23T10:31:50.794Z,7.18
2022-10-23T10:34:23.388Z,5.38
2022-10-23T10:36:52.471Z,4.68
2022-10-23T10:39:26.659Z,5.90
2022-10-23T10:42:03.330Z,5.82
2022-10-23T10:44:37.559Z,6.60
2022-10-23T10:47:10.128Z,4.72
2022-10-23T10:49:41.464Z,4.78
2022-10-23T10:52:30.558Z,4.55
2022-10-23T10:55:02.635Z,5.53
2022-10-23T10:57:33.022Z,4.57
2022-10-23T11:00:02.426Z,3.72
2022-10-23T11:02:32.707Z,4.13
2022-10-23T11:05:04.301Z,3.75
2022-10-23T11:07:34.990Z,16.45
2022-10-23T11:10:05.200Z,3.60
2022-10-23T11:12:34.081Z,3.80
2022-10-23T11:15:01.992Z,3.80
2022-10-23T11:17:33.428Z,4.68
2022-10-23T11:20:04.163Z,7.90
2022-10-23T11:22:35.520Z,5.38
2022-10-23T11:25:12.191Z,7.30
2022-10-23T11:27:49.741Z,5.13
2022-10-23T11:30:19.704Z,3.95
2022-10-23T11:33:06.501Z,4.00
2022-10-23T11:35:42.827Z,4.80
2022-10-23T11:38:16.353Z,3.85
2022-10-23T11:40:45.197Z,5.95
2022-10-23T11:43:14.257Z,7.53
2022-10-23T11:45:41.957Z,4.65
2022-10-23T11:48:21.203Z,4.40
2022-10-23T11:50:54.812Z,3.95
2022-10-23T11:53:27.484Z,4.07
2022-10-23T11:55:59.373Z,3.90
2022-10-23T11:58:40.665Z,4.70
2022-10-23T12:01:19.420Z,4.15
2022-10-23T12:03:50.556Z,4.05
2022-10-23T12:06:22.320Z,6.22
2022-10-23T12:08:52.190Z,4.20
2022-10-23T12:11:40.087Z,6.32
2022-10-23T12:14:25.618Z,3.83
2022-10-23T12:16:53.444Z,6.00
2022-10-23T12:19:22.004Z,5.63
2022-10-23T12:21:51.955Z,4.10
2022-10-23T12:24:31.776Z,12.98
2022-10-23T12:27:08.883Z,4.57
2022-10-23T12:29:46.031Z,4.60
2022-10-23T12:32:20.925Z,26.20
2022-10-23T12:34:54.047Z,4.70
2022-10-23T12:37:32.591Z,5.85
2022-10-23T12:40:01.832Z,3.88
2022-10-23T12:42:30.584Z,6.50
2022-10-23T12:45:00.821Z,4.22
2022-10-23T12:47:29.366Z,4.20
2022-10-23T12:49:56.966Z,4.60
2022-10-23T12:52:25.528Z,4.18
2022-10-23T12:54:53.088Z,6.35
2022-10-23T12:57:22.412Z,4.40
2022-10-23T12:59:50.707Z,4.30
2022-10-23T13:02:27.548Z,4.20
2022-10-23T13:04:56.487Z,5.28
2022-10-23T13:07:24.975Z,3.95
2022-10-23T13:09:52.864Z,4.82
2022-10-23T13:12:27.393Z,6.07
2022-10-23T13:14:57.354Z,5.82
2022-10-23T13:17:35.667Z,3.53
2022-10-23T13:20:10.603Z,4.65
2022-10-23T13:22:41.485Z,3.78
2022-10-23T13:25:22.582Z,3.40
2022-10-23T13:27:50.334Z,3.60
2022-10-23T13:30:31.090Z,7.60
2022-10-23T13:33:00.688Z,4.50
2022-10-23T13:35:28.479Z,5.88
2022-10-23T13:37:56.331Z,6.07
2022-10-23T13:40:25.621Z,4.90
2022-10-23T13:42:54.689Z,4.47
2022-10-23T13:45:24.385Z,3.50
2022-10-23T13:47:52.157Z,5.32
2022-10-23T13:50:21.107Z,4.90
2022-10-23T13:52:49.239Z,6.53
2022-10-23T13:55:19.507Z,3.50
2022-10-23T13:57:47.049Z,4.00
2022-10-23T14:00:15.811Z,3.55
2022-10-23T14:02:44.178Z,4.10
2022-10-23T14:05:12.719Z,3.42
2022-10-23T14:07:41.904Z,4.10
2022-10-23T14:10:09.799Z,4.05
2022-10-23T14:12:40.098Z,4.22
2022-10-23T14:15:08.239Z,4.22
2022-10-23T14:17:36.158Z,5.45
2022-10-23T14:20:05.923Z,3.92
2022-10-23T14:22:34.004Z,5.55
2022-10-23T14:25:03.227Z,4.28
2022-10-23T14:27:31.233Z,5.15
2022-10-23T14:29:59.259Z,4.80
2022-10-23T14:32:27.047Z,4.68
2022-10-23T14:34:55.216Z,4.20
2022-10-23T14:37:23.813Z,5.68
2022-10-23T14:39:51.385Z,5.53
2022-10-23T14:42:20.349Z,3.85
2022-10-23T14:44:49.817Z,4.90
2022-10-23T14:47:19.091Z,4.15
2022-10-23T14:49:49.296Z,3.90
2022-10-23T14:52:16.832Z,4.75
2022-10-23T14:54:44.436Z,8.70
2022-10-23T14:57:12.349Z,9.32
2022-10-23T14:59:41.280Z,5.00
2022-10-23T15:02:10.296Z,4.25
2022-10-23T15:04:37.803Z,5.28
2022-10-23T15:07:05.485Z,3.83
2022-10-23T15:09:35.352Z,4.35
2022-10-23T15:12:03.220Z,4.22
2022-10-23T15:14:30.935Z,4.57
2022-10-23T15:16:59.843Z,4.45
2022-10-23T15:19:27.404Z,4.72
2022-10-23T15:21:55.029Z,9.43
2022-10-23T15:24:23.117Z,5.00
2022-10-23T15:26:51.855Z,3.53
2022-10-23T15:29:19.539Z,4.00
2022-10-23T15:31:48.783Z,8.55
2022-10-23T15:34:19.191Z,4.43
2022-10-23T15:36:47.834Z,4.35
2022-10-23T15:39:16.604Z,4.00
2022-10-23T15:41:44.548Z,4.70
2022-10-23T15:44:14.152Z,4.10
2022-10-23T15:46:41.807Z,5.72
2022-10-23T15:49:09.556Z,5.65
2022-10-23T15:51:38.954Z,7.60
2022-10-23T15:54:06.933Z,8.27
2022-10-23T15:56:35.001Z,5.82
2022-10-23T15:59:02.723Z,4.95
2022-10-23T16:01:30.391Z,8.13
2022-10-23T16:03:58.326Z,4.60
2022-10-23T16:06:26.651Z,6.20
2022-10-23T16:08:55.575Z,8.65
2022-10-23T16:11:24.157Z,6.50
2022-10-23T16:13:52.065Z,8.07
2022-10-23T16:16:19.687Z,4.70
2022-10-23T16:18:47.345Z,4.57
2022-10-23T16:21:17.379Z,7.45
2022-10-23T16:23:44.993Z,5.63
2022-10-23T16:26:13.923Z,5.13
2022-10-23T16:28:43.237Z,5.72
2022-10-23T16:31:11.091Z,5.82
2022-10-23T16:33:38.595Z,6.38
2022-10-23T16:36:07.351Z,4.75
2022-10-23T16:38:54.972Z,7.78
2022-10-23T16:41:43.901Z,4.55
2022-10-23T16:44:18.106Z,6.03
2022-10-23T16:46:57.747Z,5.82
2022-10-23T16:49:25.340Z,4.35
2022-10-23T16:51:52.918Z,7.45
2022-10-23T16:54:20.431Z,6.40
2022-10-23T16:56:49.406Z,4.25
2022-10-23T16:59:17.042Z,4.20
2022-10-23T17:01:44.735Z,5.38
2022-10-23T17:04:12.478Z,5.43
2022-10-23T17:06:40.171Z,4.35
2022-10-23T17:09:07.769Z,8.35
2022-10-23T17:11:36.072Z,9.80
2022-10-23T17:14:07.205Z,7.80
2022-10-23T17:16:36.337Z,5.68
2022-10-23T17:19:16.138Z,4.80
2022-10-23T17:21:52.346Z,4.30
2022-10-23T17:24:20.276Z,4.90
2022-10-23T17:26:48.300Z,5.35
2022-10-23T17:29:18.215Z,6.47
2022-10-23T17:31:46.854Z,6.35
2022-10-23T17:34:15.598Z,5.03
2022-10-23T17:36:46.361Z,11.27
2022-10-23T17:39:16.097Z,4.70
2022-10-23T17:41:44.301Z,6.75
2022-10-23T17:44:12.248Z,7.38
2022-10-23T17:46:41.231Z,4.45
2022-10-23T17:49:08.877Z,6.95
2022-10-23T17:51:37.084Z,10.63
2022-10-23T17:54:05.952Z,4.15
2022-10-23T17:56:34.770Z,6.28
2022-10-23T17:59:03.168Z,4.15
2022-10-23T18:01:31.751Z,4.53
2022-10-23T18:04:02.711Z,4.28
2022-10-23T18:06:32.008Z,6.20
2022-10-23T18:09:00.035Z,8.20
2022-10-23T18:11:28.669Z,6.20
2022-10-23T18:13:56.319Z,4.25
2022-10-23T18:16:23.914Z,4.45
2022-10-23T18:18:52.588Z,6.00
2022-10-23T18:21:22.353Z,5.65
2022-10-23T18:23:49.927Z,5.43
2022-10-23T18:26:18.292Z,5.28
2022-10-23T18:28:46.189Z,5.15
2022-10-23T18:31:14.281Z,6.43
2022-10-23T18:33:41.897Z,5.75
2022-10-23T18:36:13.306Z,5.03
2022-10-23T18:38:42.261Z,3.88
2022-10-23T18:41:09.872Z,4.68
2022-10-23T18:43:43.682Z,8.57
2022-10-23T18:46:12.056Z,4.35
2022-10-23T18:48:39.837Z,3.65
2022-10-23T18:51:15.614Z,3.63
2022-10-23T18:53:46.892Z,5.80
2022-10-23T18:56:14.885Z,4.90
2022-10-23T18:58:42.490Z,4.03
2022-10-23T19:01:10.099Z,5.10
2022-10-23T19:03:37.784Z,3.72
2022-10-23T19:06:06.679Z,5.00
2022-10-23T19:08:36.016Z,4.53
2022-10-23T19:11:06.403Z,5.47
2022-10-23T19:13:38.989Z,6.88
2022-10-23T19:16:08.311Z,4.03
2022-10-23T19:18:37.500Z,3.88
2022-10-23T19:21:05.978Z,4.63
2022-10-23T19:23:36.245Z,4.20
2022-10-23T19:26:08.779Z,4.68
2022-10-23T19:28:37.826Z,8.13
2022-10-23T19:31:07.489Z,7.15
2022-10-23T19:33:38.788Z,8.55
2022-10-23T19:36:08.983Z,4.88
2022-10-23T19:38:41.353Z,4.53
2022-10-23T19:41:10.554Z,5.55
2022-10-23T19:43:38.628Z,5.88
2022-10-23T19:46:09.473Z,3.75
2022-10-23T19:48:42.288Z,5.10
2022-10-23T19:51:09.933Z,4.43
2022-10-23T19:53:37.536Z,4.40
2022-10-23T19:56:06.026Z,4.15
2022-10-23T19:58:35.004Z,4.03
2022-10-23T20:01:07.605Z,5.95
2022-10-23T20:03:35.264Z,4.72
2022-10-23T20:06:02.839Z,4.68
2022-10-23T20:08:32.779Z,6.35
2022-10-23T20:11:03.170Z,6.93
2022-10-23T20:13:30.936Z,4.90
2022-10-23T20:15:59.905Z,6.43
2022-10-23T20:18:28.135Z,5.07
2022-10-23T20:20:55.742Z,11.85
2022-10-23T20:23:23.413Z,7.93
2022-10-23T20:25:50.960Z,4.93
2022-10-23T20:28:18.700Z,4.93
2022-10-23T20:30:46.440Z,6.00
2022-10-23T20:33:15.422Z,4.82
2022-10-23T20:35:43.833Z,4.97
2022-10-23T20:38:11.417Z,5.03
2022-10-23T20:40:39.124Z,5.47
2022-10-23T20:43:06.695Z,5.30
2022-10-23T20:45:34.783Z,5.35
2022-10-23T20:48:02.489Z,4.68
2022-10-23T20:50:31.315Z,6.00
2022-10-23T20:52:58.839Z,6.22
2022-10-23T20:55:26.352Z,5.50
2022-10-23T20:57:54.086Z,6.57
2022-10-23T21:00:21.758Z,5.38
2022-10-23T21:02:51.340Z,5.22
2022-10-23T21:05:19.950Z,6.00
2022-10-23T21:07:48.790Z,7.70
2022-10-23T21:10:16.424Z,5.20
2022-10-23T21:12:44.214Z,5.70
2022-10-23T21:15:12.135Z,8.30
2022-10-23T21:17:40.831Z,5.20
2022-10-23T21:20:08.601Z,5.20
2022-10-23T21:22:36.276Z,5.43
2022-10-23T21:25:05.529Z,5.30
2022-10-23T21:27:33.161Z,5.80
2022-10-23T21:30:00.708Z,5.60
2022-10-23T21:32:28.337Z,7.30
2022-10-23T21:34:55.976Z,5.78
2022-10-23T21:37:24.886Z,5.70
2022-10-23T21:39:52.502Z,5.18
2022-10-23T21:42:21.590Z,4.57
2022-10-23T21:44:49.362Z,5.05
2022-10-23T21:47:16.902Z,4.93
2022-10-23T21:49:44.447Z,7.00
2022-10-23T21:52:14.004Z,5.90
2022-10-23T21:54:43.785Z,4.72
2022-10-23T21:57:13.623Z,4.28
2022-10-23T21:59:42.519Z,7.07
2022-10-23T22:02:10.472Z,5.80
2022-10-23T22:04:38.599Z,6.35
2022-10-23T22:07:06.341Z,4.72
2022-10-23T22:09:34.693Z,4.63
2022-10-23T22:12:02.433Z,3.50
2022-10-23T22:14:30.024Z,7.97
2022-10-23T22:16:58.967Z,10.35
2022-10-23T22:19:26.688Z,3.45
2022-10-23T22:21:54.347Z,4.00
2022-10-23T22:24:21.958Z,3.10
2022-10-23T22:26:51.063Z,3.03
2022-10-23T22:29:19.364Z,3.38
2022-10-23T22:31:48.873Z,2.65
2022-10-23T22:34:25.389Z,2.72
2022-10-23T22:37:01.683Z,3.15
2022-10-23T22:39:29.302Z,3.60
2022-10-23T22:41:58.533Z,5.88
2022-10-23T22:44:26.194Z,7.53
2022-10-23T22:46:53.759Z,2.78
2022-10-23T22:49:22.628Z,2.60
2022-10-23T22:51:50.174Z,2.60
2022-10-23T22:54:17.685Z,2.55
2022-10-23T22:56:45.236Z,3.47
2022-10-23T22:59:12.820Z,6.47
2022-10-23T23:01:41.265Z,2.53
2022-10-23T23:04:25.920Z,3.58
2022-10-23T23:06:55.106Z,2.72
2022-10-23T23:09:22.661Z,2.35
2022-10-23T23:11:52.524Z,3.15
2022-10-23T23:14:23.378Z,2.30
2022-10-23T23:16:52.766Z,2.97
2022-10-23T23:19:21.360Z,2.58
2022-10-23T23:21:48.870Z,3.70
2022-10-23T23:24:17.763Z,2.53
2022-10-23T23:26:45.327Z,4.03
2022-10-23T23:29:13.611Z,1.40
2022-10-23T23:31:41.115Z,1.95
2022-10-23T23:34:08.664Z,4.05
2022-10-23T23:36:36.193Z,1.75
2022-10-23T23:41:38.704Z,1.75
2022-10-23T23:44:08.217Z,1.60
2022-10-23T23:46:36.784Z,1.58
2022-10-23T23:49:04.459Z,3.55
2022-10-23T23:51:32.416Z,4.75
2022-10-23T23:53:59.970Z,2.30
2022-10-23T23:56:28.070Z,1.70
2022-10-23T23:58:58.169Z,2.00
